Flight Track Log - Related Links

Times and Time Zones

All times are in EDT time to prevent confusion due to time zone crossing. See the EJA312 flight status page for this flight to view local times or setup timezone preferences in your user account.

Time Position Orientation Groundspeed Altitude Reporting Facility
EDT Latitude Longitude Course Direction KTS MPH feet Rate Location/Type
Thu 06:20:59 PM 33.4333 -112.0500 270° West 174 200 2,700  Level Phoenix TRACON
Thu 06:21:42 PM 33.4333 -112.0833 270° West 211 243 5,000 3,036 Climbing Phoenix TRACON
Thu 06:22:22 PM 33.4400 -112.1403 278° West 229 264 6,900 3,000 Climbing Albuquerque Center
Thu 06:23:24 PM 33.4950 -112.1914 322° Northwest 283 326 10,100 2,565 Climbing Albuquerque Center
Thu 06:24:26 PM 33.5783 -112.2161 346° North 306 352 12,200 2,081 Climbing Albuquerque Center
Thu 06:25:28 PM 33.6719 -112.2406 348° North 337 388 14,400 2,274 Climbing Albuquerque Center
Thu 06:26:30 PM 33.7681 -112.2647 348° North 349 402 16,900 2,419 Climbing Albuquerque Center
Thu 06:27:32 PM 33.8658 -112.2906 348° North 355 409 19,400 2,419 Climbing Albuquerque Center
Thu 06:28:34 PM 33.9639 -112.3164 348° North 357 411 21,900 2,516 Climbing Albuquerque Center
Thu 06:29:36 PM 34.0744 -112.3625 341° North 350 403 24,600 2,256 Climbing Albuquerque Center
Thu 06:30:39 PM 34.1636 -112.4183 333° Northwest 358 412 26,600 1,645 Climbing Albuquerque Center
Thu 06:31:40 PM 34.2578 -112.4750 334° Northwest 373 429 28,000 683 Climbing Albuquerque Center
Thu 06:32:42 PM 34.3575 -112.5397 332° Northwest 398 458 28,000  Level Albuquerque Center
Thu 06:33:44 PM 34.4644 -112.6047 333° Northwest 423 487 28,000  Level Albuquerque Center
Thu 06:34:46 PM 34.5500 -112.7261 311° West 416 479 28,000  Level Albuquerque Center
Thu 06:35:48 PM 34.6167 -112.8353 307° West 408 470 28,000  Level Albuquerque Center
Thu 06:36:50 PM 34.6842 -112.9481 306° West 412 474 28,000  Level Albuquerque Center
Thu 06:37:52 PM 34.7511 -113.0611 306° West 412 474 28,000  Level Albuquerque Center
Thu 06:38:54 PM 34.8172 -113.1728 306° West 409 471 28,000  Level Albuquerque Center
Thu 06:39:56 PM 34.8844 -113.2886 305° West 415 478 28,000  Level Albuquerque Center
Thu 06:40:57 PM 34.9525 -113.4042 306° West 417 480 28,000  Level Los Angeles Center
Thu 06:41:59 PM 35.0322 -113.5419 305° West 416 479 28,000  Level Los Angeles Center
Thu 06:43:01 PM 35.1003 -113.6592 305° West 421 484 28,000 -435 Level Los Angeles Center
Thu 06:44:03 PM 35.1694 -113.7756 306° West 424 488 27,100 -1,452 Descending Los Angeles Center
Thu 06:45:05 PM 35.2372 -113.8958 305° West 428 493 25,000 -1,488 Descending Los Angeles Center
Thu 06:46:08 PM 35.3197 -113.9875 318° Northwest 408 470 24,000 -1,392 Descending Los Angeles Center
Thu 06:47:10 PM 35.4281 -114.0897 322° Northwest 407 468 22,100 -2,274 Descending Los Angeles Center
Thu 06:48:12 PM 35.5172 -114.1739 322° Northwest 406 467 19,300 -2,710 Descending Los Angeles Center
Thu 06:49:14 PM 35.6011 -114.2514 323° Northwest 390 449 16,500 -2,657 Descending Los Angeles Center
Thu 06:49:22 PM 35.6147 -114.2681 315° West 385 443 16,200 -1,500 Descending Los Angeles Center
Thu 06:50:06 PM 35.6797 -114.3256 324° Northwest 376 433 15,200 -1,222 Descending Los Angeles Center
Thu 06:50:16 PM 35.6822 -114.3281 321° Northwest 374 430 15,100 -2,852 Descending Los Angeles Center
Thu 06:51:07 PM 35.7433 -114.3864 322° Northwest 286 329 12,300 -2,710 Descending Los Angeles Center
Thu 06:51:18 PM 35.7456 -114.3850 27° Northeast 292 336 12,300 -1,151 Level Los Angeles Center
Thu 06:52:20 PM 35.8247 -114.4417 330° Northwest 276 318 10,900 -1,568 Descending Los Angeles Center
Thu 06:53:09 PM 35.8717 -114.4864 322° Northwest 277 319 9,400 -1,742 Descending Los Angeles Center
Thu 06:53:22 PM 35.8864 -114.4992 325° Northwest 276 318 9,100 -880 Descending Los Angeles Center
Thu 06:54:24 PM 35.9436 -114.5533 323° Northwest 267 307 8,300 -611 Descending Los Angeles Center
Thu 06:55:10 PM 35.9922 -114.6000 322° Northwest 262 302 8,000 -286 Descending Los Angeles Center
Thu 06:55:27 PM 36.0014 -114.6086 323° Northwest 264 304 8,000  Level Los Angeles Center
Thu 06:56:11 PM 36.0506 -114.6578 321° Northwest 267 307 8,000  Level Los Angeles Center
Thu 06:56:29 PM 36.0611 -114.6642 334° Northwest 266 306 8,000  Level Los Angeles Center
Thu 06:57:06 PM 36.1017 -114.7125 316° Northwest 267 307 8,000  Level Los Angeles Center
Thu 06:57:31 PM 36.1022 -114.7339 272° West 270 311 8,000 -98 Level Los Angeles Center
Thu 06:58:07 PM 36.1106 -114.8025 279° West 247 284 7,900 -484 Descending Los Angeles Center
Thu 06:58:33 PM 36.1211 -114.8314 294° West 247 284 7,500 -985 Descending Los Angeles Center
Thu 06:59:14 PM 36.1483 -114.8858 302° West 265 305 6,800 -968 Descending Los Angeles Center
Thu 06:59:35 PM 36.1497 -114.9128 274° West 265 305 6,500 -1,527 Descending Los Angeles Center
Thu 07:00:09 PM 36.1500 -114.9628 270° West 209 241 5,400 -1,839 Descending Los Angeles Center
Thu 07:00:37 PM 36.1503 -114.9858 271° West 223 257 4,600 -1,500 Descending Los Angeles Center
Thu 07:01:09 PM 36.1525 -115.0231 274° West 178 205 3,900 -677 Descending Los Angeles Center
Thu 07:01:39 PM 36.1506 -115.0444 264° West 195 224 3,900 -176 Level Los Angeles Center
Thu 07:02:17 PM 36.1508 -115.0850 270° West 172 198 3,700 -484 Descending Los Angeles Center
Thu 07:02:41 PM 36.1506 -115.1011 269° West 178 205 3,400 -800 Descending Los Angeles Center
Thu 07:03:17 PM 36.1358 -115.1353 242° Southwest 142 163 2,900 -677 Descending Los Angeles Center
Thu 07:03:43 PM 36.1278 -115.1381 196° South 156 180 2,700 -689 Descending Los Angeles Center
Thu 07:04:18 PM 36.1033 -115.1539 208° Southwest 129 148 2,200 -381 Descending Los Angeles Center
Thu 07:04:46 PM 36.0906 -115.1606 203° Southwest 146 168 2,300 214 Climbing Los Angeles Center
Thu 07:06:00 PM 36.0801 -115.1523 180° South  Level Estimated

Login

Don't have an account? Register now (free) for customized features, flight alerts, and more!